createdAt,value
2023-04-16T00:00:03.781Z,1008.6
2023-04-16T00:03:03.924Z,1008.7
2023-04-16T00:06:03.818Z,1008.6
2023-04-16T00:09:03.844Z,1008.7
2023-04-16T00:12:03.831Z,1008.6
2023-04-16T00:15:03.914Z,1008.7
2023-04-16T00:18:03.919Z,1008.7
2023-04-16T00:21:03.901Z,1008.5
2023-04-16T00:24:03.897Z,1008.6
2023-04-16T00:27:03.899Z,1008.7
2023-04-16T00:30:03.928Z,1008.6
2023-04-16T00:33:03.953Z,1008.7
2023-04-16T00:36:03.966Z,1008.7
2023-04-16T00:39:03.994Z,1008.7
2023-04-16T00:42:04.006Z,1008.7
2023-04-16T00:45:04.038Z,1008.7
2023-04-16T00:48:04.173Z,1008.7
2023-04-16T00:51:04.046Z,1008.8
2023-04-16T00:54:04.091Z,1008.8
2023-04-16T00:57:04.104Z,1008.8
2023-04-16T01:00:04.126Z,1008.8
2023-04-16T01:03:04.301Z,1008.8
2023-04-16T01:06:04.147Z,1008.8
2023-04-16T01:09:04.191Z,1008.9
2023-04-16T01:12:04.187Z,1008.9
2023-04-16T01:15:04.206Z,1009
2023-04-16T01:18:04.236Z,1008.9
2023-04-16T01:21:04.269Z,1009
2023-04-16T01:24:04.294Z,1009
2023-04-16T01:27:04.306Z,1009
2023-04-16T01:30:04.305Z,1009.1
2023-04-16T01:33:04.336Z,1009.1
2023-04-16T01:36:04.354Z,1009.1
2023-04-16T01:39:04.439Z,1009.1
2023-04-16T01:42:04.408Z,1009.1
2023-04-16T01:45:04.448Z,1009
2023-04-16T01:48:04.455Z,1009.2
2023-04-16T01:51:04.461Z,1009.2
2023-04-16T01:54:04.490Z,1009.2
2023-04-16T01:57:04.515Z,1009.2
2023-04-16T02:00:04.537Z,1009.2
2023-04-16T02:03:04.718Z,1009.2
2023-04-16T02:06:04.581Z,1009.2
2023-04-16T02:09:04.615Z,1009.3
2023-04-16T02:12:04.616Z,1009.2
2023-04-16T02:15:04.616Z,1009.1
2023-04-16T02:18:04.721Z,1009.2
2023-04-16T02:21:04.641Z,1009.2
2023-04-16T02:24:04.669Z,1009.2
2023-04-16T02:27:04.686Z,1009.2
2023-04-16T02:30:04.697Z,1009.1
2023-04-16T02:33:04.740Z,1009.2
2023-04-16T02:36:04.726Z,1009.1
2023-04-16T02:39:04.764Z,1009.1
2023-04-16T02:42:04.760Z,1009.1
2023-04-16T02:45:04.760Z,1009.2
2023-04-16T02:48:04.775Z,1009.3
2023-04-16T02:51:04.796Z,1009.4
2023-04-16T02:54:04.831Z,1009.4
2023-04-16T02:57:04.834Z,1009.3
2023-04-16T03:00:04.847Z,1009.4
2023-04-16T03:03:04.929Z,1009.4
2023-04-16T03:06:04.894Z,1009.4
2023-04-16T03:09:04.912Z,1009.4
2023-04-16T03:12:04.925Z,1009.4
2023-04-16T03:15:04.936Z,1009.4
2023-04-16T03:18:04.958Z,1009.5
2023-04-16T03:21:04.970Z,1009.4
2023-04-16T03:24:04.990Z,1009.5
2023-04-16T03:27:05.005Z,1009.4
2023-04-16T03:30:05.032Z,1009.5
2023-04-16T03:33:05.039Z,1009.6
2023-04-16T03:36:05.057Z,1009.6
2023-04-16T03:39:05.077Z,1009.6
2023-04-16T03:42:05.075Z,1009.6
2023-04-16T03:45:05.079Z,1009.6
2023-04-16T03:48:05.072Z,1009.7
2023-04-16T03:51:05.086Z,1009.7
2023-04-16T03:54:05.098Z,1009.7
2023-04-16T03:57:05.075Z,1009.7
2023-04-16T04:00:05.088Z,1009.8
2023-04-16T04:03:05.213Z,1009.7
2023-04-16T04:06:05.105Z,1009.7
2023-04-16T04:09:05.116Z,1009.7
2023-04-16T04:12:05.122Z,1009.7
2023-04-16T04:15:05.132Z,1009.7
2023-04-16T04:18:05.258Z,1009.8
2023-04-16T04:21:05.136Z,1009.8
2023-04-16T04:24:05.150Z,1009.9
2023-04-16T04:27:05.139Z,1009.9
2023-04-16T04:30:05.159Z,1010
2023-04-16T04:33:05.174Z,1010
2023-04-16T04:36:05.154Z,1010.1
2023-04-16T04:39:05.180Z,1010
2023-04-16T04:42:05.173Z,1010
2023-04-16T04:45:05.170Z,1010.1
2023-04-16T04:48:05.222Z,1010
2023-04-16T04:51:05.530Z,1010
2023-04-16T04:54:05.204Z,1010.1
2023-04-16T04:57:05.184Z,1010.2
2023-04-16T05:00:05.190Z,1010.2
2023-04-16T05:03:05.242Z,1010.2
2023-04-16T05:06:05.198Z,1010.2
2023-04-16T05:09:05.218Z,1010.3
2023-04-16T05:12:05.210Z,1010.2
2023-04-16T05:15:05.228Z,1010.2
2023-04-16T05:18:05.246Z,1010.3
2023-04-16T05:21:05.233Z,1010.3
2023-04-16T05:24:05.242Z,1010.3
2023-04-16T05:27:05.249Z,1010.4
2023-04-16T05:30:05.260Z,1010.5
2023-04-16T05:33:05.257Z,1010.4
2023-04-16T05:36:05.264Z,1010.5
2023-04-16T05:39:05.273Z,1010.4
2023-04-16T05:42:05.271Z,1010.4
2023-04-16T05:45:05.267Z,1010.4
2023-04-16T05:48:05.271Z,1010.5
2023-04-16T05:51:05.281Z,1010.6
2023-04-16T05:54:05.282Z,1010.6
2023-04-16T05:57:05.287Z,1010.6
2023-04-16T06:00:05.299Z,1010.7
2023-04-16T06:03:05.441Z,1010.7
2023-04-16T06:06:05.356Z,1010.8
2023-04-16T06:09:05.312Z,1010.8
2023-04-16T06:12:05.309Z,1010.8
2023-04-16T06:15:05.315Z,1010.8
2023-04-16T06:18:05.393Z,1010.8
2023-04-16T06:21:05.316Z,1010.8
2023-04-16T06:24:05.328Z,1010.8
2023-04-16T06:27:05.315Z,1010.9
2023-04-16T06:30:05.325Z,1010.9
2023-04-16T06:33:05.395Z,1011
2023-04-16T06:36:05.337Z,1011
2023-04-16T06:39:05.343Z,1011.1
2023-04-16T06:42:05.340Z,1011.1
2023-04-16T06:45:05.361Z,1011.1
2023-04-16T06:48:05.381Z,1011.1
2023-04-16T06:51:05.358Z,1011.1
2023-04-16T06:54:05.384Z,1011.2
2023-04-16T06:57:05.364Z,1011.2
2023-04-16T07:00:05.373Z,1011.2
2023-04-16T07:03:05.461Z,1011.2
2023-04-16T07:06:05.380Z,1011.2
2023-04-16T07:09:05.392Z,1011.3
2023-04-16T07:12:05.392Z,1011.2
2023-04-16T07:15:05.394Z,1011.2
2023-04-16T07:18:05.414Z,1011.2
2023-04-16T07:21:05.444Z,1011.3
2023-04-16T07:24:05.410Z,1011.3
2023-04-16T07:27:05.417Z,1011.4
2023-04-16T07:30:05.414Z,1011.3
2023-04-16T07:33:05.442Z,1011.3
2023-04-16T07:36:05.425Z,1011.5
2023-04-16T07:39:05.429Z,1011.5
2023-04-16T07:42:05.468Z,1011.5
2023-04-16T07:45:05.487Z,1011.5
2023-04-16T07:48:05.577Z,1011.6
2023-04-16T07:51:05.486Z,1011.6
2023-04-16T07:54:05.440Z,1011.6
2023-04-16T07:57:05.535Z,1011.7
2023-04-16T08:00:05.457Z,1011.7
2023-04-16T08:03:05.720Z,1011.6
2023-04-16T08:06:05.484Z,1011.6
2023-04-16T08:09:05.482Z,1011.6
2023-04-16T08:12:05.479Z,1011.8
2023-04-16T08:15:05.488Z,1011.8
2023-04-16T08:18:05.542Z,1011.9
2023-04-16T08:21:05.486Z,1011.9
2023-04-16T08:24:05.528Z,1012
2023-04-16T08:27:17.609Z,1012
2023-04-16T08:30:05.527Z,1012
2023-04-16T08:33:05.539Z,1012.1
2023-04-16T08:36:05.513Z,1012.1
2023-04-16T08:39:05.535Z,1012.2
2023-04-16T08:42:05.608Z,1012.2
2023-04-16T08:45:05.538Z,1012.2
2023-04-16T08:48:05.544Z,1012.2
2023-04-16T08:51:05.581Z,1012.1
2023-04-16T08:54:05.568Z,1012.1
2023-04-16T08:57:05.550Z,1012.3
2023-04-16T09:00:05.566Z,1012.3
2023-04-16T09:03:05.602Z,1012.3
2023-04-16T09:06:05.568Z,1012.3
2023-04-16T09:09:05.576Z,1012.2
2023-04-16T09:12:05.562Z,1012.3
2023-04-16T09:15:05.585Z,1012.4
2023-04-16T09:18:05.591Z,1012.3
2023-04-16T09:21:05.577Z,1012.3
2023-04-16T09:24:05.603Z,1012.3
2023-04-16T09:27:05.613Z,1012.4
2023-04-16T09:30:05.612Z,1012.4
2023-04-16T09:33:05.600Z,1012.4
2023-04-16T09:36:05.612Z,1012.4
2023-04-16T09:39:05.629Z,1012.5
2023-04-16T09:42:05.622Z,1012.5
2023-04-16T09:45:06.101Z,1012.5
2023-04-16T09:48:05.666Z,1012.6
2023-04-16T09:51:05.637Z,1012.6
2023-04-16T09:54:05.653Z,1012.6
2023-04-16T09:57:05.635Z,1012.6
2023-04-16T10:00:05.636Z,1012.6
2023-04-16T10:03:05.802Z,1012.6
2023-04-16T10:06:05.658Z,1012.7
2023-04-16T10:09:05.658Z,1012.7
2023-04-16T10:12:05.669Z,1012.7
2023-04-16T10:15:05.675Z,1012.8
2023-04-16T10:18:05.724Z,1012.8
2023-04-16T10:21:05.672Z,1012.8
2023-04-16T10:24:05.689Z,1012.8
2023-04-16T10:27:05.702Z,1012.9
2023-04-16T10:30:05.686Z,1012.9
2023-04-16T10:33:05.706Z,1012.9
2023-04-16T10:36:07.616Z,1012.8
2023-04-16T10:39:05.696Z,1012.8
2023-04-16T10:42:05.689Z,1012.9
2023-04-16T10:45:05.690Z,1012.9
2023-04-16T10:48:05.694Z,1012.9
2023-04-16T10:51:05.719Z,1012.9
2023-04-16T10:54:05.718Z,1012.9
2023-04-16T10:57:05.702Z,1012.9
2023-04-16T11:00:05.717Z,1012.9
2023-04-16T11:03:05.775Z,1012.9
2023-04-16T11:06:05.717Z,1012.9
2023-04-16T11:09:05.736Z,1012.8
2023-04-16T11:12:05.726Z,1012.9
2023-04-16T11:15:05.737Z,1012.9
2023-04-16T11:18:05.744Z,1013
2023-04-16T11:21:05.738Z,1013
2023-04-16T11:24:05.754Z,1013
2023-04-16T11:27:05.753Z,1013
2023-04-16T11:30:05.758Z,1013
2023-04-16T11:33:05.764Z,1013
2023-04-16T11:36:05.762Z,1013
2023-04-16T11:39:05.768Z,1013
2023-04-16T11:42:05.785Z,1013
2023-04-16T11:45:05.767Z,1013
2023-04-16T11:48:05.800Z,1013
2023-04-16T11:51:05.778Z,1013
2023-04-16T11:54:05.795Z,1013
2023-04-16T11:57:05.789Z,1013
2023-04-16T12:00:05.945Z,1013
2023-04-16T12:03:05.886Z,1013
2023-04-16T12:06:05.807Z,1013
2023-04-16T12:09:05.817Z,1013
2023-04-16T12:12:05.842Z,1013.1
2023-04-16T12:15:05.825Z,1013
2023-04-16T12:18:05.859Z,1013.1
2023-04-16T12:21:05.825Z,1013.1
2023-04-16T12:24:05.892Z,1013.1
2023-04-16T12:27:05.835Z,1013
2023-04-16T12:30:05.845Z,1013
2023-04-16T12:33:05.889Z,1013
2023-04-16T12:36:05.853Z,1013
2023-04-16T12:39:05.875Z,1013
2023-04-16T12:42:05.874Z,1013
2023-04-16T12:45:05.861Z,1013.1
2023-04-16T12:48:05.866Z,1012.9
2023-04-16T12:51:05.880Z,1013
2023-04-16T12:54:05.891Z,1013
2023-04-16T12:57:05.887Z,1013
2023-04-16T13:00:05.886Z,1012.9
2023-04-16T13:03:05.980Z,1013
2023-04-16T13:06:05.892Z,1012.8
2023-04-16T13:09:05.911Z,1012.8
2023-04-16T13:12:05.917Z,1012.8
2023-04-16T13:15:05.904Z,1012.8
2023-04-16T13:18:05.938Z,1012.9
2023-04-16T13:21:05.924Z,1012.9
2023-04-16T13:24:05.936Z,1012.9
2023-04-16T13:27:05.930Z,1012.9
2023-04-16T13:30:05.936Z,1013
2023-04-16T13:33:06.068Z,1012.9
2023-04-16T13:36:05.948Z,1013
2023-04-16T13:39:05.959Z,1013
2023-04-16T13:42:05.958Z,1012.9
2023-04-16T13:45:05.959Z,1012.9
2023-04-16T13:48:05.958Z,1013.1
2023-04-16T13:51:05.962Z,1013.1
2023-04-16T13:54:05.978Z,1013.1
2023-04-16T13:57:05.970Z,1013.1
2023-04-16T14:00:05.982Z,1013.2
2023-04-16T14:03:06.000Z,1013.2
2023-04-16T14:06:05.981Z,1013.2
2023-04-16T14:09:06.007Z,1013.2
2023-04-16T14:12:06.007Z,1013.2
2023-04-16T14:15:05.999Z,1013.3
2023-04-16T14:18:06.012Z,1013.3
2023-04-16T14:21:06.029Z,1013.2
2023-04-16T14:24:06.108Z,1013.1
2023-04-16T14:27:06.097Z,1013.2
2023-04-16T14:30:06.172Z,1013.2
2023-04-16T14:33:06.117Z,1013.2
2023-04-16T14:36:06.101Z,1013.2
2023-04-16T14:39:06.109Z,1013.2
2023-04-16T14:42:06.107Z,1013.2
2023-04-16T14:45:06.102Z,1013.2
2023-04-16T14:48:06.144Z,1013.2
2023-04-16T14:51:06.107Z,1013.2
2023-04-16T14:54:06.126Z,1013.2
2023-04-16T14:57:06.119Z,1013.3
2023-04-16T15:00:06.106Z,1013.3
2023-04-16T15:03:06.273Z,1013.3
2023-04-16T15:06:06.114Z,1013.4
2023-04-16T15:09:06.125Z,1013.3
2023-04-16T15:12:06.117Z,1013.3
2023-04-16T15:15:06.114Z,1013.3
2023-04-16T15:18:06.166Z,1013.3
2023-04-16T15:21:06.116Z,1013.3
2023-04-16T15:24:06.129Z,1013.3
2023-04-16T15:27:06.122Z,1013.3
2023-04-16T15:30:06.121Z,1013.4
2023-04-16T15:33:06.140Z,1013.4
2023-04-16T15:36:06.131Z,1013.4
2023-04-16T15:39:06.136Z,1013.5
2023-04-16T15:42:07.273Z,1013.5
2023-04-16T15:45:06.126Z,1013.5
2023-04-16T15:48:06.142Z,1013.5
2023-04-16T15:51:06.138Z,1013.5
2023-04-16T15:54:06.148Z,1013.5
2023-04-16T15:57:06.136Z,1013.5
2023-04-16T16:00:07.208Z,1013.6
2023-04-16T16:03:06.260Z,1013.6
2023-04-16T16:06:06.140Z,1013.6
2023-04-16T16:09:06.160Z,1013.7
2023-04-16T16:12:06.151Z,1013.7
2023-04-16T16:15:06.156Z,1013.8
2023-04-16T16:18:06.158Z,1013.8
2023-04-16T16:21:06.160Z,1013.9
2023-04-16T16:24:06.166Z,1013.8
2023-04-16T16:27:06.154Z,1013.8
2023-04-16T16:30:06.244Z,1013.9
2023-04-16T16:33:06.261Z,1014
2023-04-16T16:36:06.212Z,1013.9
2023-04-16T16:39:06.226Z,1013.9
2023-04-16T16:42:06.210Z,1014
2023-04-16T16:45:06.285Z,1014
2023-04-16T16:48:06.310Z,1014
2023-04-16T16:51:06.243Z,1014
2023-04-16T16:54:06.253Z,1013.9
2023-04-16T16:57:06.169Z,1014
2023-04-16T17:00:06.175Z,1014.1
2023-04-16T17:03:06.284Z,1014.1
2023-04-16T17:06:06.197Z,1014.1
2023-04-16T17:09:06.200Z,1014.1
2023-04-16T17:12:06.188Z,1014.1
2023-04-16T17:15:06.200Z,1014.1
2023-04-16T17:18:06.219Z,1014.2
2023-04-16T17:21:06.202Z,1014.1
2023-04-16T17:24:06.209Z,1014.1
2023-04-16T17:27:06.210Z,1014.2
2023-04-16T17:30:06.198Z,1014.3
2023-04-16T17:33:06.241Z,1014.2
2023-04-16T17:36:06.216Z,1014.3
2023-04-16T17:39:06.589Z,1014.3
2023-04-16T17:42:06.208Z,1014.3
2023-04-16T17:45:06.219Z,1014.4
2023-04-16T17:48:06.270Z,1014.3
2023-04-16T17:51:06.213Z,1014.4
2023-04-16T17:54:06.218Z,1014.5
2023-04-16T17:57:06.201Z,1014.5
2023-04-16T18:00:06.203Z,1014.5
2023-04-16T18:03:06.343Z,1014.5
2023-04-16T18:06:06.212Z,1014.5
2023-04-16T18:09:06.217Z,1014.5
2023-04-16T18:12:06.213Z,1014.7
2023-04-16T18:15:06.213Z,1014.7
2023-04-16T18:18:06.242Z,1014.7
2023-04-16T18:21:06.210Z,1014.8
2023-04-16T18:24:06.249Z,1014.7
2023-04-16T18:27:06.920Z,1014.8
2023-04-16T18:30:06.217Z,1014.8
2023-04-16T18:33:34.145Z,1014.8
2023-04-16T18:36:06.223Z,1014.7
2023-04-16T18:39:06.230Z,1014.7
2023-04-16T18:42:06.300Z,1014.8
2023-04-16T18:45:06.227Z,1014.8
2023-04-16T18:48:06.232Z,1014.8
2023-04-16T18:51:06.227Z,1015
2023-04-16T18:54:06.259Z,1015
2023-04-16T18:57:06.240Z,1015.1
2023-04-16T19:00:06.227Z,1015.1
2023-04-16T19:03:06.975Z,1015.1
2023-04-16T19:06:06.236Z,1015.2
2023-04-16T19:09:06.247Z,1015.2
2023-04-16T19:12:06.232Z,1015.2
2023-04-16T19:15:06.247Z,1015.2
2023-04-16T19:18:06.233Z,1015.3
2023-04-16T19:21:06.233Z,1015.3
2023-04-16T19:24:06.249Z,1015.3
2023-04-16T19:27:06.269Z,1015.3
2023-04-16T19:30:06.267Z,1015.3
2023-04-16T19:33:06.271Z,1015.3
2023-04-16T19:36:06.254Z,1015.4
2023-04-16T19:39:06.264Z,1015.4
2023-04-16T19:42:06.245Z,1015.4
2023-04-16T19:45:06.249Z,1015.4
2023-04-16T19:48:06.292Z,1015.5
2023-04-16T19:51:06.251Z,1015.5
2023-04-16T19:54:06.295Z,1015.5
2023-04-16T19:57:06.256Z,1015.5
2023-04-16T20:00:06.260Z,1015.5
2023-04-16T20:03:06.385Z,1015.5
2023-04-16T20:06:06.280Z,1015.5
2023-04-16T20:09:06.281Z,1015.5
2023-04-16T20:12:06.285Z,1015.4
2023-04-16T20:15:06.299Z,1015.5
2023-04-16T20:18:06.310Z,1015.5
2023-04-16T20:21:06.280Z,1015.5
2023-04-16T20:24:06.287Z,1015.5
2023-04-16T20:27:06.286Z,1015.5
2023-04-16T20:30:06.471Z,1015.5
2023-04-16T20:33:06.319Z,1015.5
2023-04-16T20:36:06.286Z,1015.5
2023-04-16T20:39:06.302Z,1015.5
2023-04-16T20:42:06.282Z,1015.5
2023-04-16T20:45:06.295Z,1015.5
2023-04-16T20:48:06.346Z,1015.5
2023-04-16T20:51:06.309Z,1015.5
2023-04-16T20:54:06.319Z,1015.5
2023-04-16T20:57:06.314Z,1015.5
2023-04-16T21:00:06.316Z,1015.5
2023-04-16T21:03:06.420Z,1015.5
2023-04-16T21:06:06.320Z,1015.5
2023-04-16T21:09:06.333Z,1015.5
2023-04-16T21:12:06.327Z,1015.5
2023-04-16T21:15:06.311Z,1015.5
2023-04-16T21:18:06.336Z,1015.5
2023-04-16T21:21:06.329Z,1015.6
2023-04-16T21:24:06.356Z,1015.6
2023-04-16T21:27:06.350Z,1015.6
2023-04-16T21:30:06.328Z,1015.6
2023-04-16T21:33:06.336Z,1015.7
2023-04-16T21:36:06.332Z,1015.6
2023-04-16T21:39:06.364Z,1015.6
2023-04-16T21:42:06.356Z,1015.5
2023-04-16T21:45:06.347Z,1015.5
2023-04-16T21:48:06.372Z,1015.6
2023-04-16T21:51:06.545Z,1015.7
2023-04-16T21:54:06.374Z,1015.7
2023-04-16T21:57:06.363Z,1015.8
2023-04-16T22:00:06.379Z,1015.7
2023-04-16T22:03:06.450Z,1015.7
2023-04-16T22:06:06.390Z,1015.8
2023-04-16T22:09:06.399Z,1015.8
2023-04-16T22:12:06.387Z,1015.8
2023-04-16T22:15:06.405Z,1015.7
2023-04-16T22:18:06.407Z,1015.6
2023-04-16T22:21:06.418Z,1015.6
2023-04-16T22:24:06.423Z,1015.6
2023-04-16T22:27:06.403Z,1015.8
2023-04-16T22:30:06.405Z,1015.8
2023-04-16T22:33:06.428Z,1015.8
2023-04-16T22:36:06.410Z,1015.8
2023-04-16T22:39:06.442Z,1015.8
2023-04-16T22:42:06.442Z,1015.8
2023-04-16T22:45:06.440Z,1015.9
2023-04-16T22:48:06.442Z,1015.9
2023-04-16T22:51:06.452Z,1015.8
2023-04-16T22:54:06.463Z,1015.8
2023-04-16T22:57:06.440Z,1015.9
2023-04-16T23:00:06.463Z,1015.9
2023-04-16T23:03:06.539Z,1015.9
2023-04-16T23:06:06.455Z,1015.9
2023-04-16T23:09:06.493Z,1015.8
2023-04-16T23:12:06.472Z,1015.9
2023-04-16T23:15:06.707Z,1015.9
2023-04-16T23:18:06.492Z,1015.9
2023-04-16T23:21:06.492Z,1015.9
2023-04-16T23:24:06.500Z,1015.8
2023-04-16T23:27:06.496Z,1015.8
2023-04-16T23:30:06.486Z,1016
2023-04-16T23:33:06.536Z,1015.9
2023-04-16T23:36:06.501Z,1015.8
2023-04-16T23:39:06.504Z,1016
2023-04-16T23:42:06.529Z,1016
2023-04-16T23:45:06.509Z,1016
2023-04-16T23:48:06.554Z,1015.9
2023-04-16T23:51:06.531Z,1016
2023-04-16T23:54:06.556Z,1016
2023-04-16T23:57:06.567Z,1016
